sensor_id;sensor_type;location;lat;lon;timestamp;temperature;humidity
70830;SHT30;58451;51.550;7.208;2022-07-24T00:00:31;17.19;67.56
70830;SHT30;58451;51.550;7.208;2022-07-24T00:02:58;17.18;68.73
70830;SHT30;58451;51.550;7.208;2022-07-24T00:05:26;17.17;68.10
70830;SHT30;58451;51.550;7.208;2022-07-24T00:07:52;17.15;68.05
70830;SHT30;58451;51.550;7.208;2022-07-24T00:10:19;17.11;68.04
70830;SHT30;58451;51.550;7.208;2022-07-24T00:12:46;17.08;68.11
70830;SHT30;58451;51.550;7.208;2022-07-24T00:15:13;17.05;68.10
70830;SHT30;58451;51.550;7.208;2022-07-24T00:17:40;17.03;68.21
70830;SHT30;58451;51.550;7.208;2022-07-24T00:20:08;17.00;68.29
70830;SHT30;58451;51.550;7.208;2022-07-24T00:22:37;16.96;68.49
70830;SHT30;58451;51.550;7.208;2022-07-24T00:25:04;16.94;68.48
70830;SHT30;58451;51.550;7.208;2022-07-24T00:27:32;16.91;68.61
70830;SHT30;58451;51.550;7.208;2022-07-24T00:29:58;16.88;68.67
70830;SHT30;58451;51.550;7.208;2022-07-24T00:32:26;16.85;68.75
70830;SHT30;58451;51.550;7.208;2022-07-24T00:34:52;16.80;68.86
70830;SHT30;58451;51.550;7.208;2022-07-24T00:37:19;16.78;68.94
70830;SHT30;58451;51.550;7.208;2022-07-24T00:39:46;16.75;69.01
70830;SHT30;58451;51.550;7.208;2022-07-24T00:42:14;16.73;69.10
70830;SHT30;58451;51.550;7.208;2022-07-24T00:44:41;16.70;69.11
70830;SHT30;58451;51.550;7.208;2022-07-24T00:47:08;16.66;69.69
70830;SHT30;58451;51.550;7.208;2022-07-24T00:49:36;16.65;69.90
70830;SHT30;58451;51.550;7.208;2022-07-24T00:52:03;16.62;69.61
70830;SHT30;58451;51.550;7.208;2022-07-24T00:54:30;16.59;69.59
70830;SHT30;58451;51.550;7.208;2022-07-24T00:56:57;16.56;69.61
70830;SHT30;58451;51.550;7.208;2022-07-24T00:59:24;16.54;69.68
70830;SHT30;58451;51.550;7.208;2022-07-24T01:01:51;16.51;69.69
70830;SHT30;58451;51.550;7.208;2022-07-24T01:04:19;16.48;69.80
70830;SHT30;58451;51.550;7.208;2022-07-24T01:06:46;16.46;70.77
70830;SHT30;58451;51.550;7.208;2022-07-24T01:09:15;16.43;70.19
70830;SHT30;58451;51.550;7.208;2022-07-24T01:11:42;16.42;70.10
70830;SHT30;58451;51.550;7.208;2022-07-24T01:14:12;16.40;70.20
70830;SHT30;58451;51.550;7.208;2022-07-24T01:16:41;16.37;70.29
70830;SHT30;58451;51.550;7.208;2022-07-24T01:19:08;16.34;70.38
70830;SHT30;58451;51.550;7.208;2022-07-24T01:21:35;16.33;70.56
70830;SHT30;58451;51.550;7.208;2022-07-24T01:24:02;16.31;70.66
70830;SHT30;58451;51.550;7.208;2022-07-24T01:26:30;16.30;70.79
70830;SHT30;58451;51.550;7.208;2022-07-24T01:28:57;16.28;70.92
70830;SHT30;58451;51.550;7.208;2022-07-24T01:31:23;16.27;71.07
70830;SHT30;58451;51.550;7.208;2022-07-24T01:33:50;16.23;71.09
70830;SHT30;58451;51.550;7.208;2022-07-24T01:36:17;16.22;71.23
70830;SHT30;58451;51.550;7.208;2022-07-24T01:38:44;16.19;71.28
70830;SHT30;58451;51.550;7.208;2022-07-24T01:41:11;16.16;71.33
70830;SHT30;58451;51.550;7.208;2022-07-24T01:43:38;16.14;71.41
70830;SHT30;58451;51.550;7.208;2022-07-24T01:46:05;16.12;71.48
70830;SHT30;58451;51.550;7.208;2022-07-24T01:48:32;16.10;71.62
70830;SHT30;58451;51.550;7.208;2022-07-24T01:50:59;16.09;71.73
70830;SHT30;58451;51.550;7.208;2022-07-24T01:53:27;16.05;71.85
70830;SHT30;58451;51.550;7.208;2022-07-24T01:55:54;16.04;71.93
70830;SHT30;58451;51.550;7.208;2022-07-24T01:58:21;16.02;72.04
70830;SHT30;58451;51.550;7.208;2022-07-24T02:00:48;16.00;72.20
70830;SHT30;58451;51.550;7.208;2022-07-24T02:03:17;15.98;72.32
70830;SHT30;58451;51.550;7.208;2022-07-24T02:05:45;15.95;72.38
70830;SHT30;58451;51.550;7.208;2022-07-24T02:08:13;15.93;72.45
70830;SHT30;58451;51.550;7.208;2022-07-24T02:10:40;15.91;72.61
70830;SHT30;58451;51.550;7.208;2022-07-24T02:13:08;15.89;72.75
70830;SHT30;58451;51.550;7.208;2022-07-24T02:15:35;15.88;73.14
70830;SHT30;58451;51.550;7.208;2022-07-24T02:18:02;15.86;73.20
70830;SHT30;58451;51.550;7.208;2022-07-24T02:20:29;15.83;73.39
70830;SHT30;58451;51.550;7.208;2022-07-24T02:22:57;15.82;73.54
70830;SHT30;58451;51.550;7.208;2022-07-24T02:25:24;15.79;73.39
70830;SHT30;58451;51.550;7.208;2022-07-24T02:27:51;15.77;73.33
70830;SHT30;58451;51.550;7.208;2022-07-24T02:30:19;15.74;73.40
70830;SHT30;58451;51.550;7.208;2022-07-24T02:32:48;15.71;73.41
70830;SHT30;58451;51.550;7.208;2022-07-24T02:35:15;15.69;73.55
70830;SHT30;58451;51.550;7.208;2022-07-24T02:37:44;15.69;73.58
70830;SHT30;58451;51.550;7.208;2022-07-24T02:40:12;15.67;73.70
70830;SHT30;58451;51.550;7.208;2022-07-24T02:42:41;15.65;73.77
70830;SHT30;58451;51.550;7.208;2022-07-24T02:45:09;15.63;74.04
70830;SHT30;58451;51.550;7.208;2022-07-24T02:47:45;15.63;74.43
70830;SHT30;58451;51.550;7.208;2022-07-24T02:50:22;15.61;74.16
70830;SHT30;58451;51.550;7.208;2022-07-24T02:52:55;15.60;74.18
70830;SHT30;58451;51.550;7.208;2022-07-24T02:55:22;15.59;74.25
70830;SHT30;58451;51.550;7.208;2022-07-24T02:57:49;15.58;74.32
70830;SHT30;58451;51.550;7.208;2022-07-24T03:00:16;15.58;74.44
70830;SHT30;58451;51.550;7.208;2022-07-24T03:02:43;15.57;74.50
70830;SHT30;58451;51.550;7.208;2022-07-24T03:05:11;15.57;74.55
70830;SHT30;58451;51.550;7.208;2022-07-24T03:07:39;15.57;75.00
70830;SHT30;58451;51.550;7.208;2022-07-24T03:10:07;15.56;75.00
70830;SHT30;58451;51.550;7.208;2022-07-24T03:12:37;15.56;75.00
70830;SHT30;58451;51.550;7.208;2022-07-24T03:15:05;15.55;74.95
70830;SHT30;58451;51.550;7.208;2022-07-24T03:17:32;15.57;75.38
70830;SHT30;58451;51.550;7.208;2022-07-24T03:19:59;15.58;76.63
70830;SHT30;58451;51.550;7.208;2022-07-24T03:22:27;15.58;76.69
70830;SHT30;58451;51.550;7.208;2022-07-24T03:24:54;15.59;75.94
70830;SHT30;58451;51.550;7.208;2022-07-24T03:27:21;15.60;75.76
70830;SHT30;58451;51.550;7.208;2022-07-24T03:29:48;15.61;75.75
70830;SHT30;58451;51.550;7.208;2022-07-24T03:32:15;15.62;75.78
70830;SHT30;58451;51.550;7.208;2022-07-24T03:34:42;15.63;75.79
70830;SHT30;58451;51.550;7.208;2022-07-24T03:37:08;15.64;75.99
70830;SHT30;58451;51.550;7.208;2022-07-24T03:39:35;15.66;75.86
70830;SHT30;58451;51.550;7.208;2022-07-24T03:42:02;15.68;75.87
70830;SHT30;58451;51.550;7.208;2022-07-24T03:44:29;15.70;75.92
70830;SHT30;58451;51.550;7.208;2022-07-24T03:46:56;15.71;76.04
70830;SHT30;58451;51.550;7.208;2022-07-24T03:49:23;15.76;77.34
70830;SHT30;58451;51.550;7.208;2022-07-24T03:51:50;15.78;76.60
70830;SHT30;58451;51.550;7.208;2022-07-24T03:54:20;15.81;76.33
70830;SHT30;58451;51.550;7.208;2022-07-24T03:56:48;15.84;76.23
70830;SHT30;58451;51.550;7.208;2022-07-24T03:59:16;15.89;76.21
70830;SHT30;58451;51.550;7.208;2022-07-24T04:01:44;15.91;76.17
70830;SHT30;58451;51.550;7.208;2022-07-24T04:04:11;15.95;76.31
70830;SHT30;58451;51.550;7.208;2022-07-24T04:06:38;15.99;76.28
70830;SHT30;58451;51.550;7.208;2022-07-24T04:09:07;16.04;76.17
70830;SHT30;58451;51.550;7.208;2022-07-24T04:11:35;16.08;76.10
70830;SHT30;58451;51.550;7.208;2022-07-24T04:14:02;16.12;76.02
70830;SHT30;58451;51.550;7.208;2022-07-24T04:16:30;16.17;76.03
70830;SHT30;58451;51.550;7.208;2022-07-24T04:18:56;16.23;76.01
70830;SHT30;58451;51.550;7.208;2022-07-24T04:21:28;16.27;75.92
70830;SHT30;58451;51.550;7.208;2022-07-24T04:23:55;16.34;75.92
70830;SHT30;58451;51.550;7.208;2022-07-24T04:26:22;16.40;75.91
70830;SHT30;58451;51.550;7.208;2022-07-24T04:28:49;16.46;75.82
70830;SHT30;58451;51.550;7.208;2022-07-24T04:31:15;16.52;75.77
70830;SHT30;58451;51.550;7.208;2022-07-24T04:33:43;16.59;75.70
70830;SHT30;58451;51.550;7.208;2022-07-24T04:36:10;16.67;75.68
70830;SHT30;58451;51.550;7.208;2022-07-24T04:38:38;16.71;75.64
70830;SHT30;58451;51.550;7.208;2022-07-24T04:41:05;16.76;75.62
70830;SHT30;58451;51.550;7.208;2022-07-24T04:43:32;16.80;75.60
70830;SHT30;58451;51.550;7.208;2022-07-24T04:45:59;16.84;75.61
70830;SHT30;58451;51.550;7.208;2022-07-24T04:48:25;16.90;75.61
70830;SHT30;58451;51.550;7.208;2022-07-24T04:50:52;16.96;75.50
70830;SHT30;58451;51.550;7.208;2022-07-24T04:53:19;17.03;75.42
70830;SHT30;58451;51.550;7.208;2022-07-24T04:55:46;17.13;75.35
70830;SHT30;58451;51.550;7.208;2022-07-24T04:58:13;17.23;75.69
70830;SHT30;58451;51.550;7.208;2022-07-24T05:00:40;17.32;75.45
70830;SHT30;58451;51.550;7.208;2022-07-24T05:03:07;17.42;75.22
70830;SHT30;58451;51.550;7.208;2022-07-24T05:05:34;17.54;74.98
70830;SHT30;58451;51.550;7.208;2022-07-24T05:08:01;17.66;74.77
70830;SHT30;58451;51.550;7.208;2022-07-24T05:10:28;17.80;74.54
70830;SHT30;58451;51.550;7.208;2022-07-24T05:12:55;17.94;74.25
70830;SHT30;58451;51.550;7.208;2022-07-24T05:15:28;18.11;73.84
70830;SHT30;58451;51.550;7.208;2022-07-24T05:17:55;18.33;73.14
70830;SHT30;58451;51.550;7.208;2022-07-24T05:20:22;18.57;72.48
70830;SHT30;58451;51.550;7.208;2022-07-24T05:22:49;18.81;72.01
70830;SHT30;58451;51.550;7.208;2022-07-24T05:25:16;19.05;70.47
70830;SHT30;58451;51.550;7.208;2022-07-24T05:27:43;19.28;69.78
70830;SHT30;58451;51.550;7.208;2022-07-24T05:30:10;19.46;69.29
70830;SHT30;58451;51.550;7.208;2022-07-24T05:32:37;19.63;68.72
70830;SHT30;58451;51.550;7.208;2022-07-24T05:35:05;19.83;67.43
70830;SHT30;58451;51.550;7.208;2022-07-24T05:37:32;20.04;67.20
70830;SHT30;58451;51.550;7.208;2022-07-24T05:39:59;20.23;67.07
70830;SHT30;58451;51.550;7.208;2022-07-24T05:42:26;20.35;67.01
70830;SHT30;58451;51.550;7.208;2022-07-24T05:44:53;20.48;66.33
70830;SHT30;58451;51.550;7.208;2022-07-24T05:47:20;20.60;65.48
70830;SHT30;58451;51.550;7.208;2022-07-24T05:49:46;20.72;64.77
70830;SHT30;58451;51.550;7.208;2022-07-24T05:52:13;20.83;64.93
70830;SHT30;58451;51.550;7.208;2022-07-24T05:54:40;20.97;64.84
70830;SHT30;58451;51.550;7.208;2022-07-24T05:57:07;21.09;64.39
70830;SHT30;58451;51.550;7.208;2022-07-24T05:59:34;21.23;63.45
70830;SHT30;58451;51.550;7.208;2022-07-24T06:02:01;21.37;63.15
70830;SHT30;58451;51.550;7.208;2022-07-24T06:04:31;21.52;62.12
70830;SHT30;58451;51.550;7.208;2022-07-24T06:06:58;21.67;61.58
70830;SHT30;58451;51.550;7.208;2022-07-24T06:09:25;21.81;60.32
70830;SHT30;58451;51.550;7.208;2022-07-24T06:11:51;21.96;59.38
70830;SHT30;58451;51.550;7.208;2022-07-24T06:14:19;22.09;59.20
70830;SHT30;58451;51.550;7.208;2022-07-24T06:16:46;22.23;58.38
70830;SHT30;58451;51.550;7.208;2022-07-24T06:19:13;22.34;57.99
70830;SHT30;58451;51.550;7.208;2022-07-24T06:21:40;22.45;58.76
70830;SHT30;58451;51.550;7.208;2022-07-24T06:24:07;22.56;57.09
70830;SHT30;58451;51.550;7.208;2022-07-24T06:26:34;22.66;57.72
70830;SHT30;58451;51.550;7.208;2022-07-24T06:29:21;22.80;56.53
70830;SHT30;58451;51.550;7.208;2022-07-24T06:31:48;22.91;56.50
70830;SHT30;58451;51.550;7.208;2022-07-24T06:34:15;23.02;55.80
70830;SHT30;58451;51.550;7.208;2022-07-24T06:36:41;23.13;54.70
70830;SHT30;58451;51.550;7.208;2022-07-24T06:39:08;23.18;52.89
70830;SHT30;58451;51.550;7.208;2022-07-24T06:41:35;23.24;54.15
70830;SHT30;58451;51.550;7.208;2022-07-24T06:44:07;23.36;54.41
70830;SHT30;58451;51.550;7.208;2022-07-24T06:46:33;23.48;54.53
70830;SHT30;58451;51.550;7.208;2022-07-24T06:49:00;23.58;54.45
70830;SHT30;58451;51.550;7.208;2022-07-24T06:51:28;23.68;54.03
70830;SHT30;58451;51.550;7.208;2022-07-24T06:53:55;23.76;53.20
70830;SHT30;58451;51.550;7.208;2022-07-24T06:56:21;23.74;52.06
70830;SHT30;58451;51.550;7.208;2022-07-24T06:58:48;23.73;51.96
70830;SHT30;58451;51.550;7.208;2022-07-24T07:01:15;23.74;51.81
70830;SHT30;58451;51.550;7.208;2022-07-24T07:03:42;23.76;52.00
70830;SHT30;58451;51.550;7.208;2022-07-24T07:06:09;23.85;52.07
70830;SHT30;58451;51.550;7.208;2022-07-24T07:08:36;23.93;51.98
70830;SHT30;58451;51.550;7.208;2022-07-24T07:11:03;24.06;52.50
70830;SHT30;58451;51.550;7.208;2022-07-24T07:13:30;24.20;51.90
70830;SHT30;58451;51.550;7.208;2022-07-24T07:15:57;24.29;51.10
70830;SHT30;58451;51.550;7.208;2022-07-24T07:18:24;24.35;50.57
70830;SHT30;58451;51.550;7.208;2022-07-24T07:20:50;24.37;49.98
70830;SHT30;58451;51.550;7.208;2022-07-24T07:23:23;24.43;50.87
70830;SHT30;58451;51.550;7.208;2022-07-24T07:25:56;24.57;50.55
70830;SHT30;58451;51.550;7.208;2022-07-24T07:28:23;24.67;51.23
70830;SHT30;58451;51.550;7.208;2022-07-24T07:30:50;24.83;50.24
70830;SHT30;58451;51.550;7.208;2022-07-24T07:33:17;24.89;49.20
70830;SHT30;58451;51.550;7.208;2022-07-24T07:35:44;24.90;48.27
70830;SHT30;58451;51.550;7.208;2022-07-24T07:38:11;24.84;47.97
70830;SHT30;58451;51.550;7.208;2022-07-24T07:40:38;24.78;48.21
70830;SHT30;58451;51.550;7.208;2022-07-24T07:43:04;24.79;48.53
70830;SHT30;58451;51.550;7.208;2022-07-24T07:45:31;24.86;48.38
70830;SHT30;58451;51.550;7.208;2022-07-24T07:47:58;24.87;48.13
70830;SHT30;58451;51.550;7.208;2022-07-24T07:50:25;24.86;48.43
70830;SHT30;58451;51.550;7.208;2022-07-24T07:52:52;24.87;48.66
70830;SHT30;58451;51.550;7.208;2022-07-24T07:55:19;24.99;48.92
70830;SHT30;58451;51.550;7.208;2022-07-24T07:57:47;25.12;48.44
70830;SHT30;58451;51.550;7.208;2022-07-24T08:00:32;25.22;48.38
70830;SHT30;58451;51.550;7.208;2022-07-24T08:03:00;25.33;48.15
70830;SHT30;58451;51.550;7.208;2022-07-24T08:05:28;25.42;47.78
70830;SHT30;58451;51.550;7.208;2022-07-24T08:07:56;25.50;46.99
70830;SHT30;58451;51.550;7.208;2022-07-24T08:10:23;25.57;47.03
70830;SHT30;58451;51.550;7.208;2022-07-24T08:12:50;25.65;46.70
70830;SHT30;58451;51.550;7.208;2022-07-24T08:15:17;25.75;46.62
70830;SHT30;58451;51.550;7.208;2022-07-24T08:17:44;25.86;46.20
70830;SHT30;58451;51.550;7.208;2022-07-24T08:20:12;25.96;45.51
70830;SHT30;58451;51.550;7.208;2022-07-24T08:22:38;26.02;45.60
70830;SHT30;58451;51.550;7.208;2022-07-24T08:25:05;26.12;45.80
70830;SHT30;58451;51.550;7.208;2022-07-24T08:27:36;26.23;45.71
70830;SHT30;58451;51.550;7.208;2022-07-24T08:30:05;26.30;44.75
70830;SHT30;58451;51.550;7.208;2022-07-24T08:32:33;26.34;44.61
70830;SHT30;58451;51.550;7.208;2022-07-24T08:35:01;26.33;44.64
70830;SHT30;58451;51.550;7.208;2022-07-24T08:37:28;26.37;44.18
70830;SHT30;58451;51.550;7.208;2022-07-24T08:39:55;26.35;44.42
70830;SHT30;58451;51.550;7.208;2022-07-24T08:42:22;26.40;44.46
70830;SHT30;58451;51.550;7.208;2022-07-24T08:44:49;26.43;44.04
70830;SHT30;58451;51.550;7.208;2022-07-24T08:47:16;26.44;43.91
70830;SHT30;58451;51.550;7.208;2022-07-24T08:49:48;26.42;44.35
70830;SHT30;58451;51.550;7.208;2022-07-24T08:52:23;26.53;44.97
70830;SHT30;58451;51.550;7.208;2022-07-24T08:54:52;26.73;44.91
70830;SHT30;58451;51.550;7.208;2022-07-24T08:57:20;26.88;44.49
70830;SHT30;58451;51.550;7.208;2022-07-24T08:59:48;26.98;44.03
70830;SHT30;58451;51.550;7.208;2022-07-24T09:02:14;26.99;43.34
70830;SHT30;58451;51.550;7.208;2022-07-24T09:04:45;26.98;43.93
70830;SHT30;58451;51.550;7.208;2022-07-24T09:07:17;27.07;43.72
70830;SHT30;58451;51.550;7.208;2022-07-24T09:09:59;27.10;43.41
70830;SHT30;58451;51.550;7.208;2022-07-24T09:12:33;27.08;43.58
70830;SHT30;58451;51.550;7.208;2022-07-24T09:15:12;27.14;43.91
70830;SHT30;58451;51.550;7.208;2022-07-24T09:17:51;27.30;43.81
70830;SHT30;58451;51.550;7.208;2022-07-24T09:20:23;27.38;43.60
70830;SHT30;58451;51.550;7.208;2022-07-24T09:22:56;27.45;43.10
70830;SHT30;58451;51.550;7.208;2022-07-24T09:25:32;27.40;43.03
70830;SHT30;58451;51.550;7.208;2022-07-24T09:28:02;27.45;43.73
70830;SHT30;58451;51.550;7.208;2022-07-24T09:30:37;27.63;43.87
70830;SHT30;58451;51.550;7.208;2022-07-24T09:35:50;27.81;42.60
70830;SHT30;58451;51.550;7.208;2022-07-24T09:38:23;27.85;43.51
70830;SHT30;58451;51.550;7.208;2022-07-24T09:40:52;28.01;43.33
70830;SHT30;58451;51.550;7.208;2022-07-24T09:46:01;28.20;43.14
70830;SHT30;58451;51.550;7.208;2022-07-24T09:48:31;28.31;43.20
70830;SHT30;58451;51.550;7.208;2022-07-24T09:51:11;28.40;42.12
70830;SHT30;58451;51.550;7.208;2022-07-24T09:53:42;28.34;41.68
70830;SHT30;58451;51.550;7.208;2022-07-24T09:56:13;28.28;41.76
70830;SHT30;58451;51.550;7.208;2022-07-24T10:01:13;28.40;42.32
70830;SHT30;58451;51.550;7.208;2022-07-24T10:03:45;28.48;41.54
70830;SHT30;58451;51.550;7.208;2022-07-24T10:06:14;28.46;41.62
70830;SHT30;58451;51.550;7.208;2022-07-24T10:08:46;28.48;41.28
70830;SHT30;58451;51.550;7.208;2022-07-24T10:11:16;28.50;41.21
70830;SHT30;58451;51.550;7.208;2022-07-24T10:13:45;28.54;41.19
70830;SHT30;58451;51.550;7.208;2022-07-24T10:21:22;28.92;41.29
70830;SHT30;58451;51.550;7.208;2022-07-24T10:26:33;28.95;40.01
70830;SHT30;58451;51.550;7.208;2022-07-24T10:29:21;28.87;40.03
70830;SHT30;58451;51.550;7.208;2022-07-24T10:31:51;28.93;39.73
70830;SHT30;58451;51.550;7.208;2022-07-24T10:34:33;28.87;39.62
70830;SHT30;58451;51.550;7.208;2022-07-24T10:40:11;28.84;39.50
70830;SHT30;58451;51.550;7.208;2022-07-24T10:45:32;28.94;39.69
70830;SHT30;58451;51.550;7.208;2022-07-24T10:53:30;29.55;38.88
70830;SHT30;58451;51.550;7.208;2022-07-24T10:59:08;29.48;38.28
70830;SHT30;58451;51.550;7.208;2022-07-24T11:06:48;29.73;37.66
70830;SHT30;58451;51.550;7.208;2022-07-24T11:12:31;30.04;38.11
70830;SHT30;58451;51.550;7.208;2022-07-24T11:15:12;30.26;37.17
70830;SHT30;58451;51.550;7.208;2022-07-24T11:18:12;30.46;37.13
70830;SHT30;58451;51.550;7.208;2022-07-24T11:20:41;30.67;37.09
70830;SHT30;58451;51.550;7.208;2022-07-24T11:23:18;30.74;36.65
70830;SHT30;58451;51.550;7.208;2022-07-24T11:25:49;30.71;36.57
70830;SHT30;58451;51.550;7.208;2022-07-24T11:28:16;30.80;36.82
70830;SHT30;58451;51.550;7.208;2022-07-24T11:30:43;30.97;36.97
70830;SHT30;58451;51.550;7.208;2022-07-24T11:33:17;31.17;36.90
70830;SHT30;58451;51.550;7.208;2022-07-24T11:35:48;31.27;35.37
70830;SHT30;58451;51.550;7.208;2022-07-24T11:38:15;31.16;34.81
70830;SHT30;58451;51.550;7.208;2022-07-24T11:40:43;31.21;34.79
70830;SHT30;58451;51.550;7.208;2022-07-24T11:43:10;31.25;34.89
70830;SHT30;58451;51.550;7.208;2022-07-24T11:45:37;31.35;34.89
70830;SHT30;58451;51.550;7.208;2022-07-24T11:48:06;31.38;35.16
70830;SHT30;58451;51.550;7.208;2022-07-24T11:50:45;31.41;35.29
70830;SHT30;58451;51.550;7.208;2022-07-24T11:53:12;31.49;35.34
70830;SHT30;58451;51.550;7.208;2022-07-24T11:55:39;31.60;35.05
70830;SHT30;58451;51.550;7.208;2022-07-24T11:58:06;31.60;34.66
70830;SHT30;58451;51.550;7.208;2022-07-24T12:00:53;31.71;35.12
70830;SHT30;58451;51.550;7.208;2022-07-24T12:03:23;31.79;34.91
70830;SHT30;58451;51.550;7.208;2022-07-24T12:05:52;31.75;34.70
70830;SHT30;58451;51.550;7.208;2022-07-24T12:08:22;31.67;35.16
70830;SHT30;58451;51.550;7.208;2022-07-24T12:10:56;31.58;34.99
70830;SHT30;58451;51.550;7.208;2022-07-24T12:13:24;31.48;35.33
70830;SHT30;58451;51.550;7.208;2022-07-24T12:15:53;31.46;35.59
70830;SHT30;58451;51.550;7.208;2022-07-24T12:18:20;31.59;35.78
70830;SHT30;58451;51.550;7.208;2022-07-24T12:20:58;31.57;35.08
70830;SHT30;58451;51.550;7.208;2022-07-24T12:23:29;31.36;35.45
70830;SHT30;58451;51.550;7.208;2022-07-24T12:25:57;31.43;35.78
70830;SHT30;58451;51.550;7.208;2022-07-24T12:28:26;31.56;35.49
70830;SHT30;58451;51.550;7.208;2022-07-24T12:30:54;31.74;35.25
70830;SHT30;58451;51.550;7.208;2022-07-24T12:33:23;31.79;35.16
70830;SHT30;58451;51.550;7.208;2022-07-24T12:36:10;31.71;34.57
70830;SHT30;58451;51.550;7.208;2022-07-24T12:38:39;31.68;35.09
70830;SHT30;58451;51.550;7.208;2022-07-24T12:41:16;31.81;34.93
70830;SHT30;58451;51.550;7.208;2022-07-24T12:46:15;31.52;34.55
70830;SHT30;58451;51.550;7.208;2022-07-24T12:51:56;31.57;35.32
70830;SHT30;58451;51.550;7.208;2022-07-24T12:56:58;31.85;35.15
70830;SHT30;58451;51.550;7.208;2022-07-24T12:59:42;32.03;35.35
70830;SHT30;58451;51.550;7.208;2022-07-24T13:02:18;32.25;34.93
70830;SHT30;58451;51.550;7.208;2022-07-24T13:04:48;32.30;34.34
70830;SHT30;58451;51.550;7.208;2022-07-24T13:07:25;32.35;34.29
70830;SHT30;58451;51.550;7.208;2022-07-24T13:09:52;32.30;34.33
70830;SHT30;58451;51.550;7.208;2022-07-24T13:12:20;32.28;34.12
70830;SHT30;58451;51.550;7.208;2022-07-24T13:14:47;32.14;34.41
70830;SHT30;58451;51.550;7.208;2022-07-24T13:17:17;32.08;34.23
70830;SHT30;58451;51.550;7.208;2022-07-24T13:19:47;32.00;34.24
70830;SHT30;58451;51.550;7.208;2022-07-24T13:22:16;31.92;34.06
70830;SHT30;58451;51.550;7.208;2022-07-24T13:24:44;31.85;34.26
70830;SHT30;58451;51.550;7.208;2022-07-24T13:27:12;31.88;33.78
70830;SHT30;58451;51.550;7.208;2022-07-24T13:29:40;31.76;34.16
70830;SHT30;58451;51.550;7.208;2022-07-24T13:32:08;31.93;34.75
70830;SHT30;58451;51.550;7.208;2022-07-24T13:34:34;32.26;34.38
70830;SHT30;58451;51.550;7.208;2022-07-24T13:37:03;32.38;32.77
70830;SHT30;58451;51.550;7.208;2022-07-24T13:39:33;32.13;32.57
70830;SHT30;58451;51.550;7.208;2022-07-24T13:42:03;32.05;33.26
70830;SHT30;58451;51.550;7.208;2022-07-24T13:44:30;32.11;33.11
70830;SHT30;58451;51.550;7.208;2022-07-24T13:46:58;32.33;32.72
70830;SHT30;58451;51.550;7.208;2022-07-24T13:49:25;33.12;31.87
70830;SHT30;58451;51.550;7.208;2022-07-24T13:51:52;33.74;31.30
70830;SHT30;58451;51.550;7.208;2022-07-24T13:54:19;34.49;31.22
70830;SHT30;58451;51.550;7.208;2022-07-24T13:56:46;35.33;29.31
70830;SHT30;58451;51.550;7.208;2022-07-24T13:59:13;36.03;28.66
70830;SHT30;58451;51.550;7.208;2022-07-24T14:01:40;36.33;27.75
70830;SHT30;58451;51.550;7.208;2022-07-24T14:04:08;36.69;27.12
70830;SHT30;58451;51.550;7.208;2022-07-24T14:06:55;36.88;26.64
70830;SHT30;58451;51.550;7.208;2022-07-24T14:09:22;37.54;26.66
70830;SHT30;58451;51.550;7.208;2022-07-24T14:11:49;38.35;25.72
70830;SHT30;58451;51.550;7.208;2022-07-24T14:14:17;38.83;25.29
70830;SHT30;58451;51.550;7.208;2022-07-24T14:16:44;39.44;23.99
70830;SHT30;58451;51.550;7.208;2022-07-24T14:19:11;39.69;23.84
70830;SHT30;58451;51.550;7.208;2022-07-24T14:21:38;40.22;23.95
70830;SHT30;58451;51.550;7.208;2022-07-24T14:24:06;40.84;23.77
70830;SHT30;58451;51.550;7.208;2022-07-24T14:26:41;41.42;22.35
70830;SHT30;58451;51.550;7.208;2022-07-24T14:29:09;41.69;21.96
70830;SHT30;58451;51.550;7.208;2022-07-24T14:31:37;42.12;20.96
70830;SHT30;58451;51.550;7.208;2022-07-24T14:34:04;42.47;21.65
70830;SHT30;58451;51.550;7.208;2022-07-24T14:36:32;43.16;20.76
70830;SHT30;58451;51.550;7.208;2022-07-24T14:38:59;43.92;20.72
70830;SHT30;58451;51.550;7.208;2022-07-24T14:41:26;44.68;19.63
70830;SHT30;58451;51.550;7.208;2022-07-24T14:43:53;44.67;18.49
70830;SHT30;58451;51.550;7.208;2022-07-24T14:46:19;43.96;18.77
70830;SHT30;58451;51.550;7.208;2022-07-24T14:48:46;43.43;19.68
70830;SHT30;58451;51.550;7.208;2022-07-24T14:51:13;44.26;20.10
70830;SHT30;58451;51.550;7.208;2022-07-24T14:53:40;45.28;18.96
70830;SHT30;58451;51.550;7.208;2022-07-24T14:56:07;46.08;18.60
70830;SHT30;58451;51.550;7.208;2022-07-24T14:58:34;46.47;17.28
70830;SHT30;58451;51.550;7.208;2022-07-24T15:01:01;45.54;17.58
70830;SHT30;58451;51.550;7.208;2022-07-24T15:03:28;45.30;17.32
70830;SHT30;58451;51.550;7.208;2022-07-24T15:05:56;45.55;17.52
70830;SHT30;58451;51.550;7.208;2022-07-24T15:08:23;46.11;17.84
70830;SHT30;58451;51.550;7.208;2022-07-24T15:10:50;46.72;17.54
70830;SHT30;58451;51.550;7.208;2022-07-24T15:13:17;47.21;17.61
70830;SHT30;58451;51.550;7.208;2022-07-24T15:15:44;47.97;17.18
70830;SHT30;58451;51.550;7.208;2022-07-24T15:18:11;48.86;16.48
70830;SHT30;58451;51.550;7.208;2022-07-24T15:20:38;49.26;15.40
70830;SHT30;58451;51.550;7.208;2022-07-24T15:23:05;48.23;15.49
70830;SHT30;58451;51.550;7.208;2022-07-24T15:25:32;47.83;16.13
70830;SHT30;58451;51.550;7.208;2022-07-24T15:28:00;48.39;15.95
70830;SHT30;58451;51.550;7.208;2022-07-24T15:30:28;47.93;15.73
70830;SHT30;58451;51.550;7.208;2022-07-24T15:32:57;48.01;16.68
70830;SHT30;58451;51.550;7.208;2022-07-24T15:35:28;49.03;15.87
70830;SHT30;58451;51.550;7.208;2022-07-24T15:37:56;48.93;15.22
70830;SHT30;58451;51.550;7.208;2022-07-24T15:40:24;47.88;15.76
70830;SHT30;58451;51.550;7.208;2022-07-24T15:42:54;47.65;16.25
70830;SHT30;58451;51.550;7.208;2022-07-24T15:45:21;48.10;16.47
70830;SHT30;58451;51.550;7.208;2022-07-24T15:47:49;48.59;15.84
70830;SHT30;58451;51.550;7.208;2022-07-24T15:50:17;48.96;16.08
70830;SHT30;58451;51.550;7.208;2022-07-24T15:52:45;49.72;15.86
70830;SHT30;58451;51.550;7.208;2022-07-24T15:55:12;49.68;14.94
70830;SHT30;58451;51.550;7.208;2022-07-24T15:57:46;48.80;15.66
70830;SHT30;58451;51.550;7.208;2022-07-24T16:00:14;48.83;15.66
70830;SHT30;58451;51.550;7.208;2022-07-24T16:02:43;49.00;15.58
70830;SHT30;58451;51.550;7.208;2022-07-24T16:05:10;49.04;15.80
70830;SHT30;58451;51.550;7.208;2022-07-24T16:07:38;49.72;15.45
70830;SHT30;58451;51.550;7.208;2022-07-24T16:10:05;50.18;15.31
70830;SHT30;58451;51.550;7.208;2022-07-24T16:12:32;50.83;15.33
70830;SHT30;58451;51.550;7.208;2022-07-24T16:15:00;50.76;14.62
70830;SHT30;58451;51.550;7.208;2022-07-24T16:17:27;49.96;15.09
70830;SHT30;58451;51.550;7.208;2022-07-24T16:19:54;49.37;15.58
70830;SHT30;58451;51.550;7.208;2022-07-24T16:22:21;49.66;15.77
70830;SHT30;58451;51.550;7.208;2022-07-24T16:24:48;50.08;15.21